East Brookfield, Vermont
Current Conditions -  °F | °C
As of 7:02 PM on Friday 24 Oct 2014 (Local Time) from KMPV Reporting Station
Overcast Overcast  
Wind Chill: 38°   Ceiling: 1500
Heat Index: 42°   Visibility: 10mi
Dew Point: 40°   Wind: 7mph
Humidity: 92%   Direction: 320°NW
Pressure: 29.85"   Gusts: NA
Location:  43.9542°N, 72.5457°W
Report Text: KMPV 242302Z AUTO 32006KT 10SM FEW009 OVC015 06/04 A2985 RMK AO2 T00560044 $
Loading
Personal Weather Stations






























Interactive Weather Map
Tropical Storm Tracking
New forecast layout! Learn more

10-Day Weather Forecast

Advertisements
Track Severe Weather on mobile